sensor_id;sensor_type;location;lat;lon;timestamp;temperature;humidity
6865;DHT22;3471;49.678;8.388;2023-09-19T00:01:07;19.00;99.90
6865;DHT22;3471;49.678;8.388;2023-09-19T00:03:34;19.00;99.90
6865;DHT22;3471;49.678;8.388;2023-09-19T00:06:03;19.00;99.90
6865;DHT22;3471;49.678;8.388;2023-09-19T00:08:30;19.00;99.90
6865;DHT22;3471;49.678;8.388;2023-09-19T00:10:56;19.10;99.90
6865;DHT22;3471;49.678;8.388;2023-09-19T00:13:22;19.10;99.90
6865;DHT22;3471;49.678;8.388;2023-09-19T00:15:48;19.20;99.90
6865;DHT22;3471;49.678;8.388;2023-09-19T00:18:15;19.20;99.90
6865;DHT22;3471;49.678;8.388;2023-09-19T00:20:47;19.20;99.90
6865;DHT22;3471;49.678;8.388;2023-09-19T00:23:17;19.20;99.90
6865;DHT22;3471;49.678;8.388;2023-09-19T00:25:42;19.20;99.90
6865;DHT22;3471;49.678;8.388;2023-09-19T00:28:08;19.20;99.90
6865;DHT22;3471;49.678;8.388;2023-09-19T00:30:34;19.20;99.90
6865;DHT22;3471;49.678;8.388;2023-09-19T00:33:00;19.10;99.90
6865;DHT22;3471;49.678;8.388;2023-09-19T00:35:28;19.10;99.90
6865;DHT22;3471;49.678;8.388;2023-09-19T00:37:54;19.10;99.90
6865;DHT22;3471;49.678;8.388;2023-09-19T00:40:20;19.20;99.90
6865;DHT22;3471;49.678;8.388;2023-09-19T00:42:48;19.20;99.90
6865;DHT22;3471;49.678;8.388;2023-09-19T00:45:15;19.20;99.90
6865;DHT22;3471;49.678;8.388;2023-09-19T00:47:44;19.20;99.90
6865;DHT22;3471;49.678;8.388;2023-09-19T00:50:11;19.30;99.90
6865;DHT22;3471;49.678;8.388;2023-09-19T00:52:40;19.30;99.90
6865;DHT22;3471;49.678;8.388;2023-09-19T00:55:08;19.30;99.90
6865;DHT22;3471;49.678;8.388;2023-09-19T00:57:34;19.30;99.90
6865;DHT22;3471;49.678;8.388;2023-09-19T01:00:03;19.30;99.90
6865;DHT22;3471;49.678;8.388;2023-09-19T01:02:33;19.30;99.90
6865;DHT22;3471;49.678;8.388;2023-09-19T01:04:59;19.30;99.90
6865;DHT22;3471;49.678;8.388;2023-09-19T01:07:28;19.30;99.90
6865;DHT22;3471;49.678;8.388;2023-09-19T01:09:59;19.30;99.90
6865;DHT22;3471;49.678;8.388;2023-09-19T01:20:42;19.40;99.90
6865;DHT22;3471;49.678;8.388;2023-09-19T01:29:39;19.40;99.90
6865;DHT22;3471;49.678;8.388;2023-09-19T01:32:10;19.40;99.90
6865;DHT22;3471;49.678;8.388;2023-09-19T01:34:48;19.40;99.90
6865;DHT22;3471;49.678;8.388;2023-09-19T01:37:19;19.40;99.90
6865;DHT22;3471;49.678;8.388;2023-09-19T01:39:52;19.40;99.90
6865;DHT22;3471;49.678;8.388;2023-09-19T01:42:28;19.40;99.90
6865;DHT22;3471;49.678;8.388;2023-09-19T01:47:52;19.40;99.90
6865;DHT22;3471;49.678;8.388;2023-09-19T01:50:50;19.50;99.90
6865;DHT22;3471;49.678;8.388;2023-09-19T01:53:30;19.50;99.90
6865;DHT22;3471;49.678;8.388;2023-09-19T01:55:59;19.50;99.90
6865;DHT22;3471;49.678;8.388;2023-09-19T01:58:41;19.50;99.90
6865;DHT22;3471;49.678;8.388;2023-09-19T02:01:11;19.50;99.90
6865;DHT22;3471;49.678;8.388;2023-09-19T02:03:39;19.50;99.90
6865;DHT22;3471;49.678;8.388;2023-09-19T02:06:06;19.50;99.90
6865;DHT22;3471;49.678;8.388;2023-09-19T02:08:37;19.50;99.90
6865;DHT22;3471;49.678;8.388;2023-09-19T02:11:02;19.50;99.90
6865;DHT22;3471;49.678;8.388;2023-09-19T02:13:28;19.50;99.90
6865;DHT22;3471;49.678;8.388;2023-09-19T02:15:54;19.50;99.90
6865;DHT22;3471;49.678;8.388;2023-09-19T02:18:21;19.40;99.90
6865;DHT22;3471;49.678;8.388;2023-09-19T02:20:46;19.40;99.90
6865;DHT22;3471;49.678;8.388;2023-09-19T02:23:13;19.40;99.90
6865;DHT22;3471;49.678;8.388;2023-09-19T02:25:39;19.30;99.90
6865;DHT22;3471;49.678;8.388;2023-09-19T02:28:06;19.30;99.90
6865;DHT22;3471;49.678;8.388;2023-09-19T02:30:32;19.20;99.90
6865;DHT22;3471;49.678;8.388;2023-09-19T02:32:58;19.20;99.90
6865;DHT22;3471;49.678;8.388;2023-09-19T02:35:27;19.20;99.90
6865;DHT22;3471;49.678;8.388;2023-09-19T02:37:53;19.20;99.90
6865;DHT22;3471;49.678;8.388;2023-09-19T02:40:19;19.10;99.90
6865;DHT22;3471;49.678;8.388;2023-09-19T02:42:48;19.10;99.90
6865;DHT22;3471;49.678;8.388;2023-09-19T02:45:18;19.10;99.90
6865;DHT22;3471;49.678;8.388;2023-09-19T02:47:45;19.10;99.90
6865;DHT22;3471;49.678;8.388;2023-09-19T02:50:11;19.10;99.90
6865;DHT22;3471;49.678;8.388;2023-09-19T02:52:38;19.10;99.90
6865;DHT22;3471;49.678;8.388;2023-09-19T02:55:03;19.10;99.90
6865;DHT22;3471;49.678;8.388;2023-09-19T02:57:31;19.10;99.90
6865;DHT22;3471;49.678;8.388;2023-09-19T02:59:59;19.10;99.90
6865;DHT22;3471;49.678;8.388;2023-09-19T03:02:26;19.10;99.90
6865;DHT22;3471;49.678;8.388;2023-09-19T03:04:53;19.10;99.90
6865;DHT22;3471;49.678;8.388;2023-09-19T03:07:19;19.00;99.90
6865;DHT22;3471;49.678;8.388;2023-09-19T03:09:44;19.00;99.90
6865;DHT22;3471;49.678;8.388;2023-09-19T03:12:11;19.00;99.90
6865;DHT22;3471;49.678;8.388;2023-09-19T03:14:36;19.00;99.90
6865;DHT22;3471;49.678;8.388;2023-09-19T03:17:02;19.00;99.90
6865;DHT22;3471;49.678;8.388;2023-09-19T03:19:31;19.00;99.90
6865;DHT22;3471;49.678;8.388;2023-09-19T03:21:59;19.00;99.90
6865;DHT22;3471;49.678;8.388;2023-09-19T03:24:25;19.00;99.90
6865;DHT22;3471;49.678;8.388;2023-09-19T03:26:51;19.00;99.90
6865;DHT22;3471;49.678;8.388;2023-09-19T03:29:17;19.10;99.90
6865;DHT22;3471;49.678;8.388;2023-09-19T03:31:43;19.10;99.90
6865;DHT22;3471;49.678;8.388;2023-09-19T03:34:09;19.00;99.90
6865;DHT22;3471;49.678;8.388;2023-09-19T03:36:35;19.00;99.90
6865;DHT22;3471;49.678;8.388;2023-09-19T03:39:01;19.00;99.90
6865;DHT22;3471;49.678;8.388;2023-09-19T03:41:30;19.00;99.90
6865;DHT22;3471;49.678;8.388;2023-09-19T03:43:56;18.90;99.90
6865;DHT22;3471;49.678;8.388;2023-09-19T03:46:22;18.90;99.90
6865;DHT22;3471;49.678;8.388;2023-09-19T03:48:48;18.80;99.90
6865;DHT22;3471;49.678;8.388;2023-09-19T03:51:13;18.70;99.90
6865;DHT22;3471;49.678;8.388;2023-09-19T03:53:39;18.70;99.90
6865;DHT22;3471;49.678;8.388;2023-09-19T03:56:04;18.70;99.90
6865;DHT22;3471;49.678;8.388;2023-09-19T03:58:30;18.70;99.90
6865;DHT22;3471;49.678;8.388;2023-09-19T04:00:56;18.70;99.90
6865;DHT22;3471;49.678;8.388;2023-09-19T04:03:23;18.70;99.90
6865;DHT22;3471;49.678;8.388;2023-09-19T04:05:50;18.70;99.90
6865;DHT22;3471;49.678;8.388;2023-09-19T04:08:15;18.70;99.90
6865;DHT22;3471;49.678;8.388;2023-09-19T04:10:44;18.60;99.90
6865;DHT22;3471;49.678;8.388;2023-09-19T04:13:10;18.60;99.90
6865;DHT22;3471;49.678;8.388;2023-09-19T04:15:36;18.50;99.90
6865;DHT22;3471;49.678;8.388;2023-09-19T04:18:03;18.50;99.90
6865;DHT22;3471;49.678;8.388;2023-09-19T04:20:29;18.50;99.90
6865;DHT22;3471;49.678;8.388;2023-09-19T04:22:54;18.40;99.90
6865;DHT22;3471;49.678;8.388;2023-09-19T04:25:20;18.40;99.90
6865;DHT22;3471;49.678;8.388;2023-09-19T04:27:46;18.40;99.90
6865;DHT22;3471;49.678;8.388;2023-09-19T04:30:12;18.30;99.90
6865;DHT22;3471;49.678;8.388;2023-09-19T04:32:38;18.30;99.90
6865;DHT22;3471;49.678;8.388;2023-09-19T04:35:10;18.20;99.90
6865;DHT22;3471;49.678;8.388;2023-09-19T04:37:37;18.20;99.90
6865;DHT22;3471;49.678;8.388;2023-09-19T04:40:05;18.20;99.90
6865;DHT22;3471;49.678;8.388;2023-09-19T04:42:31;18.20;99.90
6865;DHT22;3471;49.678;8.388;2023-09-19T04:44:57;18.20;99.90
6865;DHT22;3471;49.678;8.388;2023-09-19T04:47:25;18.20;99.90
6865;DHT22;3471;49.678;8.388;2023-09-19T04:49:50;18.20;99.90
6865;DHT22;3471;49.678;8.388;2023-09-19T04:52:16;18.20;99.90
6865;DHT22;3471;49.678;8.388;2023-09-19T04:54:41;18.20;99.90
6865;DHT22;3471;49.678;8.388;2023-09-19T04:57:07;18.20;99.90
6865;DHT22;3471;49.678;8.388;2023-09-19T04:59:32;18.20;99.90
6865;DHT22;3471;49.678;8.388;2023-09-19T05:01:58;18.20;99.90
6865;DHT22;3471;49.678;8.388;2023-09-19T05:04:24;18.20;99.90
6865;DHT22;3471;49.678;8.388;2023-09-19T05:06:49;18.20;99.90
6865;DHT22;3471;49.678;8.388;2023-09-19T05:09:16;18.30;99.90
6865;DHT22;3471;49.678;8.388;2023-09-19T05:11:45;18.30;99.90
6865;DHT22;3471;49.678;8.388;2023-09-19T05:14:11;18.30;99.90
6865;DHT22;3471;49.678;8.388;2023-09-19T05:16:37;18.40;99.90
6865;DHT22;3471;49.678;8.388;2023-09-19T05:19:03;18.40;99.90
6865;DHT22;3471;49.678;8.388;2023-09-19T05:21:29;18.40;99.90
6865;DHT22;3471;49.678;8.388;2023-09-19T05:23:56;18.40;99.90
6865;DHT22;3471;49.678;8.388;2023-09-19T05:26:22;18.40;99.90
6865;DHT22;3471;49.678;8.388;2023-09-19T05:28:47;18.40;99.90
6865;DHT22;3471;49.678;8.388;2023-09-19T05:31:13;18.40;99.90
6865;DHT22;3471;49.678;8.388;2023-09-19T05:33:39;18.40;99.90
6865;DHT22;3471;49.678;8.388;2023-09-19T05:36:05;18.40;99.90
6865;DHT22;3471;49.678;8.388;2023-09-19T05:38:30;18.40;99.90
6865;DHT22;3471;49.678;8.388;2023-09-19T05:40:58;18.30;99.90
6865;DHT22;3471;49.678;8.388;2023-09-19T05:43:23;18.30;99.90
6865;DHT22;3471;49.678;8.388;2023-09-19T05:45:49;18.40;99.90
6865;DHT22;3471;49.678;8.388;2023-09-19T05:48:17;18.30;99.90
6865;DHT22;3471;49.678;8.388;2023-09-19T05:50:43;18.40;99.90
6865;DHT22;3471;49.678;8.388;2023-09-19T05:53:10;18.40;99.90
6865;DHT22;3471;49.678;8.388;2023-09-19T05:55:40;18.40;99.90
6865;DHT22;3471;49.678;8.388;2023-09-19T05:58:06;18.40;99.90
6865;DHT22;3471;49.678;8.388;2023-09-19T06:00:31;18.40;99.90
6865;DHT22;3471;49.678;8.388;2023-09-19T06:02:58;18.40;99.90
6865;DHT22;3471;49.678;8.388;2023-09-19T06:05:27;18.40;99.90
6865;DHT22;3471;49.678;8.388;2023-09-19T06:07:53;18.40;99.90
6865;DHT22;3471;49.678;8.388;2023-09-19T06:10:20;18.40;99.90
6865;DHT22;3471;49.678;8.388;2023-09-19T06:12:48;18.50;99.90
6865;DHT22;3471;49.678;8.388;2023-09-19T06:15:15;18.50;99.90
6865;DHT22;3471;49.678;8.388;2023-09-19T06:17:52;18.50;99.90
6865;DHT22;3471;49.678;8.388;2023-09-19T06:20:21;18.60;99.90
6865;DHT22;3471;49.678;8.388;2023-09-19T06:22:48;18.60;99.90
6865;DHT22;3471;49.678;8.388;2023-09-19T06:25:15;18.70;99.90
6865;DHT22;3471;49.678;8.388;2023-09-19T06:27:45;18.70;99.90
6865;DHT22;3471;49.678;8.388;2023-09-19T06:30:11;18.70;99.90
6865;DHT22;3471;49.678;8.388;2023-09-19T06:32:42;18.70;99.90
6865;DHT22;3471;49.678;8.388;2023-09-19T06:35:10;18.70;99.90
6865;DHT22;3471;49.678;8.388;2023-09-19T06:37:37;18.60;99.90
6865;DHT22;3471;49.678;8.388;2023-09-19T06:40:09;18.60;99.90
6865;DHT22;3471;49.678;8.388;2023-09-19T06:42:44;18.60;99.90
6865;DHT22;3471;49.678;8.388;2023-09-19T06:45:14;18.60;99.90
6865;DHT22;3471;49.678;8.388;2023-09-19T06:47:47;18.60;99.90
6865;DHT22;3471;49.678;8.388;2023-09-19T06:50:20;18.60;99.90
6865;DHT22;3471;49.678;8.388;2023-09-19T06:52:52;18.60;99.90
6865;DHT22;3471;49.678;8.388;2023-09-19T06:55:20;18.50;99.90
6865;DHT22;3471;49.678;8.388;2023-09-19T06:57:47;18.50;99.90
6865;DHT22;3471;49.678;8.388;2023-09-19T07:00:14;18.50;99.90
6865;DHT22;3471;49.678;8.388;2023-09-19T07:02:44;18.50;99.90
6865;DHT22;3471;49.678;8.388;2023-09-19T07:05:10;18.50;99.90
6865;DHT22;3471;49.678;8.388;2023-09-19T07:07:36;18.50;99.90
6865;DHT22;3471;49.678;8.388;2023-09-19T07:10:02;18.60;99.90
6865;DHT22;3471;49.678;8.388;2023-09-19T07:12:28;18.50;99.90
6865;DHT22;3471;49.678;8.388;2023-09-19T07:14:53;18.50;99.90
6865;DHT22;3471;49.678;8.388;2023-09-19T07:17:20;18.50;99.90
6865;DHT22;3471;49.678;8.388;2023-09-19T07:19:46;18.40;99.90
6865;DHT22;3471;49.678;8.388;2023-09-19T07:22:13;18.50;99.90
6865;DHT22;3471;49.678;8.388;2023-09-19T07:24:39;18.50;99.90
6865;DHT22;3471;49.678;8.388;2023-09-19T07:27:04;18.50;99.90
6865;DHT22;3471;49.678;8.388;2023-09-19T07:29:30;18.60;99.90
6865;DHT22;3471;49.678;8.388;2023-09-19T07:31:56;18.60;99.90
6865;DHT22;3471;49.678;8.388;2023-09-19T07:34:21;18.70;99.90
6865;DHT22;3471;49.678;8.388;2023-09-19T07:36:48;18.70;99.90
6865;DHT22;3471;49.678;8.388;2023-09-19T07:39:14;18.70;99.90
6865;DHT22;3471;49.678;8.388;2023-09-19T07:41:39;18.80;99.90
6865;DHT22;3471;49.678;8.388;2023-09-19T07:44:05;18.90;99.90
6865;DHT22;3471;49.678;8.388;2023-09-19T07:46:31;19.00;99.90
6865;DHT22;3471;49.678;8.388;2023-09-19T07:48:57;19.00;99.90
6865;DHT22;3471;49.678;8.388;2023-09-19T07:51:23;19.00;99.90
6865;DHT22;3471;49.678;8.388;2023-09-19T07:53:48;19.10;99.90
6865;DHT22;3471;49.678;8.388;2023-09-19T07:56:14;19.10;99.90
6865;DHT22;3471;49.678;8.388;2023-09-19T07:58:40;19.20;99.90
6865;DHT22;3471;49.678;8.388;2023-09-19T08:01:10;19.20;99.90
6865;DHT22;3471;49.678;8.388;2023-09-19T08:03:36;19.20;99.90
6865;DHT22;3471;49.678;8.388;2023-09-19T08:06:07;19.20;99.90
6865;DHT22;3471;49.678;8.388;2023-09-19T08:08:33;19.30;99.90
6865;DHT22;3471;49.678;8.388;2023-09-19T08:11:03;19.30;99.90
6865;DHT22;3471;49.678;8.388;2023-09-19T08:13:37;19.30;99.90
6865;DHT22;3471;49.678;8.388;2023-09-19T08:16:03;19.30;99.90
6865;DHT22;3471;49.678;8.388;2023-09-19T08:18:30;19.40;99.90
6865;DHT22;3471;49.678;8.388;2023-09-19T08:20:55;19.50;99.90
6865;DHT22;3471;49.678;8.388;2023-09-19T08:23:23;19.60;99.90
6865;DHT22;3471;49.678;8.388;2023-09-19T08:25:49;19.70;99.90
6865;DHT22;3471;49.678;8.388;2023-09-19T08:28:15;19.80;99.90
6865;DHT22;3471;49.678;8.388;2023-09-19T08:30:45;19.80;99.90
6865;DHT22;3471;49.678;8.388;2023-09-19T08:33:11;19.80;99.90
6865;DHT22;3471;49.678;8.388;2023-09-19T08:35:37;20.00;99.90
6865;DHT22;3471;49.678;8.388;2023-09-19T08:38:05;20.00;99.90
6865;DHT22;3471;49.678;8.388;2023-09-19T08:40:32;20.00;99.90
6865;DHT22;3471;49.678;8.388;2023-09-19T08:42:59;20.10;99.90
6865;DHT22;3471;49.678;8.388;2023-09-19T08:45:26;20.10;99.90
6865;DHT22;3471;49.678;8.388;2023-09-19T08:48:23;20.20;99.90
6865;DHT22;3471;49.678;8.388;2023-09-19T08:51:06;20.30;99.90
6865;DHT22;3471;49.678;8.388;2023-09-19T08:53:42;20.30;99.90
6865;DHT22;3471;49.678;8.388;2023-09-19T08:56:12;20.20;99.90
6865;DHT22;3471;49.678;8.388;2023-09-19T08:58:52;20.30;99.90
6865;DHT22;3471;49.678;8.388;2023-09-19T09:01:20;20.30;99.90
6865;DHT22;3471;49.678;8.388;2023-09-19T09:03:56;20.50;99.90
6865;DHT22;3471;49.678;8.388;2023-09-19T09:06:23;20.60;99.90
6865;DHT22;3471;49.678;8.388;2023-09-19T09:08:52;20.60;99.90
6865;DHT22;3471;49.678;8.388;2023-09-19T09:11:20;20.70;99.90
6865;DHT22;3471;49.678;8.388;2023-09-19T09:13:46;20.80;99.90
6865;DHT22;3471;49.678;8.388;2023-09-19T09:16:13;20.80;99.90
6865;DHT22;3471;49.678;8.388;2023-09-19T09:18:39;20.70;99.90
6865;DHT22;3471;49.678;8.388;2023-09-19T09:21:06;20.70;99.90
6865;DHT22;3471;49.678;8.388;2023-09-19T09:23:32;20.90;99.90
6865;DHT22;3471;49.678;8.388;2023-09-19T09:25:58;20.90;99.90
6865;DHT22;3471;49.678;8.388;2023-09-19T09:28:34;21.10;99.90
6865;DHT22;3471;49.678;8.388;2023-09-19T09:31:01;21.10;99.90
6865;DHT22;3471;49.678;8.388;2023-09-19T09:33:28;21.10;99.90
6865;DHT22;3471;49.678;8.388;2023-09-19T09:35:56;21.10;99.90
6865;DHT22;3471;49.678;8.388;2023-09-19T09:38:26;21.10;99.90
6865;DHT22;3471;49.678;8.388;2023-09-19T09:40:59;21.00;99.90
6865;DHT22;3471;49.678;8.388;2023-09-19T09:46:16;21.00;99.90
6865;DHT22;3471;49.678;8.388;2023-09-19T09:51:43;21.20;99.90
6865;DHT22;3471;49.678;8.388;2023-09-19T09:54:12;21.30;99.90
6865;DHT22;3471;49.678;8.388;2023-09-19T09:56:58;21.40;99.90
6865;DHT22;3471;49.678;8.388;2023-09-19T09:59:52;21.50;99.90
6865;DHT22;3471;49.678;8.388;2023-09-19T10:02:27;21.60;99.90
6865;DHT22;3471;49.678;8.388;2023-09-19T10:05:14;21.70;99.90
6865;DHT22;3471;49.678;8.388;2023-09-19T10:08:11;21.80;99.90
6865;DHT22;3471;49.678;8.388;2023-09-19T10:10:41;21.80;99.90
6865;DHT22;3471;49.678;8.388;2023-09-19T10:13:07;21.90;99.90
6865;DHT22;3471;49.678;8.388;2023-09-19T10:15:38;22.00;99.90
6865;DHT22;3471;49.678;8.388;2023-09-19T10:18:07;22.00;99.90
6865;DHT22;3471;49.678;8.388;2023-09-19T10:20:37;22.10;99.90
6865;DHT22;3471;49.678;8.388;2023-09-19T10:23:08;22.30;99.90
6865;DHT22;3471;49.678;8.388;2023-09-19T10:25:38;22.50;99.90
6865;DHT22;3471;49.678;8.388;2023-09-19T10:28:09;22.60;99.90
6865;DHT22;3471;49.678;8.388;2023-09-19T10:30:42;22.70;99.90
6865;DHT22;3471;49.678;8.388;2023-09-19T10:33:14;22.70;99.90
6865;DHT22;3471;49.678;8.388;2023-09-19T10:35:43;22.70;99.90
6865;DHT22;3471;49.678;8.388;2023-09-19T10:38:11;22.50;99.90
6865;DHT22;3471;49.678;8.388;2023-09-19T10:40:38;22.60;99.90
6865;DHT22;3471;49.678;8.388;2023-09-19T10:43:15;22.50;99.90
6865;DHT22;3471;49.678;8.388;2023-09-19T10:45:45;22.40;99.90
6865;DHT22;3471;49.678;8.388;2023-09-19T10:48:12;22.30;99.90
6865;DHT22;3471;49.678;8.388;2023-09-19T10:50:51;22.30;99.90
6865;DHT22;3471;49.678;8.388;2023-09-19T10:53:17;22.40;99.90
6865;DHT22;3471;49.678;8.388;2023-09-19T10:55:56;22.40;99.90
6865;DHT22;3471;49.678;8.388;2023-09-19T10:58:27;22.70;99.90
6865;DHT22;3471;49.678;8.388;2023-09-19T11:00:58;23.10;99.90
6865;DHT22;3471;49.678;8.388;2023-09-19T11:03:34;23.50;99.90
6865;DHT22;3471;49.678;8.388;2023-09-19T11:06:07;23.80;99.90
6865;DHT22;3471;49.678;8.388;2023-09-19T11:11:45;24.10;99.90
6865;DHT22;3471;49.678;8.388;2023-09-19T11:30:34;25.00;99.90
6865;DHT22;3471;49.678;8.388;2023-09-19T11:33:17;25.00;99.90
6865;DHT22;3471;49.678;8.388;2023-09-19T11:49:16;25.80;98.80
6865;DHT22;3471;49.678;8.388;2023-09-19T11:51:50;25.80;98.50
6865;DHT22;3471;49.678;8.388;2023-09-19T11:54:20;25.90;98.00
6865;DHT22;3471;49.678;8.388;2023-09-19T11:56:51;26.00;98.50
6865;DHT22;3471;49.678;8.388;2023-09-19T11:59:43;26.10;98.40
6865;DHT22;3471;49.678;8.388;2023-09-19T12:02:12;26.30;97.80
6865;DHT22;3471;49.678;8.388;2023-09-19T12:04:44;26.40;97.30
6865;DHT22;3471;49.678;8.388;2023-09-19T12:07:16;26.30;97.40
6865;DHT22;3471;49.678;8.388;2023-09-19T12:09:43;26.40;97.90
6865;DHT22;3471;49.678;8.388;2023-09-19T12:12:11;26.50;97.30
6865;DHT22;3471;49.678;8.388;2023-09-19T12:14:48;26.60;96.80
6865;DHT22;3471;49.678;8.388;2023-09-19T12:17:13;26.60;96.70
6865;DHT22;3471;49.678;8.388;2023-09-19T12:19:49;26.80;97.10
6865;DHT22;3471;49.678;8.388;2023-09-19T12:22:14;27.00;96.90
6865;DHT22;3471;49.678;8.388;2023-09-19T12:24:40;27.40;96.10
6865;DHT22;3471;49.678;8.388;2023-09-19T12:27:09;27.70;95.90
6865;DHT22;3471;49.678;8.388;2023-09-19T12:29:47;28.10;94.80
6865;DHT22;3471;49.678;8.388;2023-09-19T12:32:34;28.50;94.00
6865;DHT22;3471;49.678;8.388;2023-09-19T12:35:00;28.90;94.10
6865;DHT22;3471;49.678;8.388;2023-09-19T12:37:32;29.20;94.30
6865;DHT22;3471;49.678;8.388;2023-09-19T12:40:09;29.30;92.40
6865;DHT22;3471;49.678;8.388;2023-09-19T12:42:48;29.50;92.00
6865;DHT22;3471;49.678;8.388;2023-09-19T12:45:17;29.60;90.60
6865;DHT22;3471;49.678;8.388;2023-09-19T12:48:18;29.60;91.50
6865;DHT22;3471;49.678;8.388;2023-09-19T12:53:28;29.70;91.10
6865;DHT22;3471;49.678;8.388;2023-09-19T12:56:00;29.90;91.00
6865;DHT22;3471;49.678;8.388;2023-09-19T12:58:26;30.00;90.40
6865;DHT22;3471;49.678;8.388;2023-09-19T13:00:52;29.40;89.40
6865;DHT22;3471;49.678;8.388;2023-09-19T13:03:27;29.00;90.50
6865;DHT22;3471;49.678;8.388;2023-09-19T13:06:03;28.30;90.60
6865;DHT22;3471;49.678;8.388;2023-09-19T13:08:34;27.80;91.70
6865;DHT22;3471;49.678;8.388;2023-09-19T13:11:10;27.50;91.70
6865;DHT22;3471;49.678;8.388;2023-09-19T13:16:04;27.30;92.70
6865;DHT22;3471;49.678;8.388;2023-09-19T13:18:54;27.40;93.70
6865;DHT22;3471;49.678;8.388;2023-09-19T13:21:34;27.50;93.20
6865;DHT22;3471;49.678;8.388;2023-09-19T13:24:24;27.50;92.80
6865;DHT22;3471;49.678;8.388;2023-09-19T13:26:53;27.40;92.10
6865;DHT22;3471;49.678;8.388;2023-09-19T13:29:19;27.30;92.70
6865;DHT22;3471;49.678;8.388;2023-09-19T13:31:49;27.20;93.50
6865;DHT22;3471;49.678;8.388;2023-09-19T13:34:15;27.30;94.10
6865;DHT22;3471;49.678;8.388;2023-09-19T13:36:44;27.50;93.70
6865;DHT22;3471;49.678;8.388;2023-09-19T13:39:09;27.80;93.10
6865;DHT22;3471;49.678;8.388;2023-09-19T13:41:36;28.20;94.20
6865;DHT22;3471;49.678;8.388;2023-09-19T13:44:04;28.50;92.90
6865;DHT22;3471;49.678;8.388;2023-09-19T13:46:30;28.60;92.60
6865;DHT22;3471;49.678;8.388;2023-09-19T13:48:58;29.00;91.30
6865;DHT22;3471;49.678;8.388;2023-09-19T13:51:26;29.10;91.70
6865;DHT22;3471;49.678;8.388;2023-09-19T13:53:51;29.10;91.40
6865;DHT22;3471;49.678;8.388;2023-09-19T13:56:17;29.20;91.90
6865;DHT22;3471;49.678;8.388;2023-09-19T13:58:43;29.00;90.90
6865;DHT22;3471;49.678;8.388;2023-09-19T14:01:08;28.80;90.20
6865;DHT22;3471;49.678;8.388;2023-09-19T14:03:41;28.60;90.60
6865;DHT22;3471;49.678;8.388;2023-09-19T14:06:12;28.20;90.80
6865;DHT22;3471;49.678;8.388;2023-09-19T14:08:38;28.20;92.00
6865;DHT22;3471;49.678;8.388;2023-09-19T14:11:07;28.20;91.00
6865;DHT22;3471;49.678;8.388;2023-09-19T14:13:33;27.90;91.90
6865;DHT22;3471;49.678;8.388;2023-09-19T14:16:06;27.60;91.70
6865;DHT22;3471;49.678;8.388;2023-09-19T14:18:32;27.30;91.70
6865;DHT22;3471;49.678;8.388;2023-09-19T14:21:01;27.30;92.40
6865;DHT22;3471;49.678;8.388;2023-09-19T14:23:28;27.40;93.00
6865;DHT22;3471;49.678;8.388;2023-09-19T14:25:54;27.40;92.10
6865;DHT22;3471;49.678;8.388;2023-09-19T14:28:19;27.30;92.10
6865;DHT22;3471;49.678;8.388;2023-09-19T14:30:45;27.20;92.40
6865;DHT22;3471;49.678;8.388;2023-09-19T14:33:11;27.20;93.00
6865;DHT22;3471;49.678;8.388;2023-09-19T14:35:37;27.20;92.20
6865;DHT22;3471;49.678;8.388;2023-09-19T14:38:03;27.30;92.30
6865;DHT22;3471;49.678;8.388;2023-09-19T14:40:29;27.30;93.80
6865;DHT22;3471;49.678;8.388;2023-09-19T14:42:56;27.30;93.10
6865;DHT22;3471;49.678;8.388;2023-09-19T14:45:21;27.50;94.10
6865;DHT22;3471;49.678;8.388;2023-09-19T14:47:47;27.80;93.10
6865;DHT22;3471;49.678;8.388;2023-09-19T14:50:13;27.90;92.70
6865;DHT22;3471;49.678;8.388;2023-09-19T14:52:40;28.10;92.60
6865;DHT22;3471;49.678;8.388;2023-09-19T14:55:06;28.20;92.50
6865;DHT22;3471;49.678;8.388;2023-09-19T14:57:34;28.30;92.40
6865;DHT22;3471;49.678;8.388;2023-09-19T15:00:00;28.60;93.20
6865;DHT22;3471;49.678;8.388;2023-09-19T15:02:25;28.90;92.10
6865;DHT22;3471;49.678;8.388;2023-09-19T15:04:52;29.00;91.90
6865;DHT22;3471;49.678;8.388;2023-09-19T15:07:18;29.00;91.40
6865;DHT22;3471;49.678;8.388;2023-09-19T15:09:43;28.90;91.70
6865;DHT22;3471;49.678;8.388;2023-09-19T15:12:11;28.90;91.50
6865;DHT22;3471;49.678;8.388;2023-09-19T15:14:40;28.80;93.00
6865;DHT22;3471;49.678;8.388;2023-09-19T15:17:07;28.70;91.70
6865;DHT22;3471;49.678;8.388;2023-09-19T15:19:33;28.60;91.30
6865;DHT22;3471;49.678;8.388;2023-09-19T15:21:58;28.50;91.90
6865;DHT22;3471;49.678;8.388;2023-09-19T15:24:24;28.70;91.30
6865;DHT22;3471;49.678;8.388;2023-09-19T15:26:52;28.70;92.10
6865;DHT22;3471;49.678;8.388;2023-09-19T15:29:17;28.70;91.20
6865;DHT22;3471;49.678;8.388;2023-09-19T15:31:43;28.30;91.70
6865;DHT22;3471;49.678;8.388;2023-09-19T15:34:09;28.30;92.00
6865;DHT22;3471;49.678;8.388;2023-09-19T15:36:36;28.30;92.00
6865;DHT22;3471;49.678;8.388;2023-09-19T15:39:04;28.10;92.10
6865;DHT22;3471;49.678;8.388;2023-09-19T15:41:41;27.90;92.50
6865;DHT22;3471;49.678;8.388;2023-09-19T15:44:14;27.50;92.00
6865;DHT22;3471;49.678;8.388;2023-09-19T15:46:41;27.10;92.70
6865;DHT22;3471;49.678;8.388;2023-09-19T15:49:07;26.70;93.40
6865;DHT22;3471;49.678;8.388;2023-09-19T15:51:33;26.40;93.90
6865;DHT22;3471;49.678;8.388;2023-09-19T15:53:59;26.00;94.60
6865;DHT22;3471;49.678;8.388;2023-09-19T15:56:26;25.80;94.80
6865;DHT22;3471;49.678;8.388;2023-09-19T15:58:54;25.50;95.40
6865;DHT22;3471;49.678;8.388;2023-09-19T16:01:21;25.20;95.90
6865;DHT22;3471;49.678;8.388;2023-09-19T16:06:16;24.70;96.90
6865;DHT22;3471;49.678;8.388;2023-09-19T16:08:47;24.40;96.80
6865;DHT22;3471;49.678;8.388;2023-09-19T16:11:13;24.30;97.20
6865;DHT22;3471;49.678;8.388;2023-09-19T16:13:40;24.10;97.20
6865;DHT22;3471;49.678;8.388;2023-09-19T16:16:07;23.90;97.30
6865;DHT22;3471;49.678;8.388;2023-09-19T16:18:33;23.80;98.30
6865;DHT22;3471;49.678;8.388;2023-09-19T16:21:03;23.60;98.40
6865;DHT22;3471;49.678;8.388;2023-09-19T16:23:30;23.60;98.70
6865;DHT22;3471;49.678;8.388;2023-09-19T16:26:07;23.50;98.90
6865;DHT22;3471;49.678;8.388;2023-09-19T16:28:35;23.50;99.10
6865;DHT22;3471;49.678;8.388;2023-09-19T16:31:04;23.50;99.30
6865;DHT22;3471;49.678;8.388;2023-09-19T16:33:33;23.50;99.70
6865;DHT22;3471;49.678;8.388;2023-09-19T16:35:59;23.40;99.40
6865;DHT22;3471;49.678;8.388;2023-09-19T16:38:25;23.30;99.60
6865;DHT22;3471;49.678;8.388;2023-09-19T16:40:58;23.20;99.80
6865;DHT22;3471;49.678;8.388;2023-09-19T16:43:27;23.10;99.90
6865;DHT22;3471;49.678;8.388;2023-09-19T16:48:20;23.00;99.90
6865;DHT22;3471;49.678;8.388;2023-09-19T16:50:46;22.90;99.90
6865;DHT22;3471;49.678;8.388;2023-09-19T16:53:11;22.90;99.90
6865;DHT22;3471;49.678;8.388;2023-09-19T16:55:37;22.80;99.90
6865;DHT22;3471;49.678;8.388;2023-09-19T16:58:04;22.70;99.90
6865;DHT22;3471;49.678;8.388;2023-09-19T17:00:30;22.70;99.90
6865;DHT22;3471;49.678;8.388;2023-09-19T17:02:56;22.70;99.90
6865;DHT22;3471;49.678;8.388;2023-09-19T17:05:22;22.60;99.90
6865;DHT22;3471;49.678;8.388;2023-09-19T17:07:48;22.60;99.90
6865;DHT22;3471;49.678;8.388;2023-09-19T17:10:13;22.50;99.90
6865;DHT22;3471;49.678;8.388;2023-09-19T17:12:39;22.50;99.90
6865;DHT22;3471;49.678;8.388;2023-09-19T17:15:05;22.50;99.90
6865;DHT22;3471;49.678;8.388;2023-09-19T17:17:31;22.60;99.90